Weather at Gombera Airport

Public forecast

Using degrees Celsius for public forecast. Weather courtesy of forecast.io.

Closest aviation weather report (METAR) to Gombera Airport

Closest report is Robert Gabriel Mugabe International Airport, 72.0 nm (133.3 km) SE. Retrieved 2021/01/25 15:00 UTC (32 minutes ago):

FVRG 251500Z 03013KT 9999 SCT020 BKN300 21/15 Q1019 NOSIG

Closest aviation forecast (TAF) to Gombera Airport

Closest forecast is Robert Gabriel Mugabe International Airport, 72.0 nm (133.3 km) SE. Retrieved 2021/01/25 12:00 UTC (4 hours ago):

TAF FVRG 251000Z 2512/2618 02014KT 9999 BKN008 BKN080 PROB30 TEMPO 2512/2518 8000 -TSRA SCT008 FEW020CB BKN080 BECMG 2603/2605 9999 SCT008 BECMG 2608/2610 BKN025TCU PROB30 TEMPO 2612/2618 8000 -TSRA SCT008 FEW020CB BKN080